createdAt,value
2023-03-10T00:00:01.190Z,5.49
2023-03-10T00:02:03.698Z,5.95
2023-03-10T00:04:06.116Z,6.06
2023-03-10T00:06:10.867Z,6.43
2023-03-10T00:08:13.154Z,6.74
2023-03-10T00:10:16.959Z,6.97
2023-03-10T00:12:19.324Z,7.15
2023-03-10T00:14:22.029Z,7.07
2023-03-10T00:16:27.943Z,7.52
2023-03-10T00:18:30.292Z,7.35
2023-03-10T00:20:32.786Z,7.75
2023-03-10T00:22:39.338Z,7.86
2023-03-10T00:24:41.692Z,8.03
2023-03-10T00:26:45.760Z,8.18
2023-03-10T00:28:49.473Z,8.14
2023-03-10T00:30:59.042Z,8.20
2023-03-10T00:33:02.919Z,8.36
2023-03-10T00:35:07.149Z,7.99
2023-03-10T00:37:10.233Z,8.12
2023-03-10T00:39:12.432Z,8.42
2023-03-10T00:41:19.912Z,8.14
2023-03-10T00:43:22.247Z,8.26
2023-03-10T00:45:25.280Z,8.37
2023-03-10T00:47:27.552Z,8.00
2023-03-10T00:49:31.093Z,8.29
2023-03-10T00:51:34.309Z,8.44
2023-03-10T00:53:39.060Z,8.16
2023-03-10T00:55:41.457Z,8.18
2023-03-10T00:57:44.729Z,8.28
2023-03-10T00:59:51.889Z,8.08
2023-03-10T01:01:55.016Z,8.07
2023-03-10T01:04:00.846Z,8.11
2023-03-10T01:06:03.363Z,7.84
2023-03-10T01:08:05.855Z,8.13
2023-03-10T01:10:08.732Z,8.06
2023-03-10T01:12:10.926Z,7.87
2023-03-10T01:14:15.717Z,8.22
2023-03-10T01:16:18.701Z,7.89
2023-03-10T01:18:22.012Z,7.85
2023-03-10T01:20:24.290Z,8.04
2023-03-10T01:22:26.730Z,7.98
2023-03-10T01:24:29.263Z,7.68
2023-03-10T01:26:32.294Z,8.10
2023-03-10T01:28:34.624Z,7.96
2023-03-10T01:30:40.131Z,7.94
2023-03-10T01:32:42.471Z,8.04
2023-03-10T01:34:45.003Z,7.97
2023-03-10T01:36:47.180Z,7.90
2023-03-10T01:38:50.315Z,7.88
2023-03-10T01:40:53.644Z,7.86
2023-03-10T01:43:16.494Z,8.11
2023-03-10T01:45:19.265Z,8.08
2023-03-10T01:47:21.845Z,7.90
2023-03-10T01:49:35.197Z,7.72
2023-03-10T01:51:40.315Z,7.83
2023-03-10T01:53:43.655Z,7.81
2023-03-10T01:55:50.599Z,7.85
2023-03-10T01:57:56.904Z,7.89
2023-03-10T02:00:00.946Z,7.66
2023-03-10T02:02:07.496Z,7.62
2023-03-10T02:04:17.014Z,7.78
2023-03-10T02:06:21.385Z,7.65
2023-03-10T02:08:31.540Z,7.58
2023-03-10T02:10:33.987Z,7.87
2023-03-10T02:12:37.063Z,7.64
2023-03-10T02:14:40.319Z,7.65
2023-03-10T02:16:42.637Z,7.77
2023-03-10T02:18:48.656Z,7.65
2023-03-10T02:21:27.542Z,7.67
2023-03-10T02:24:00.322Z,7.74
2023-03-10T02:26:18.393Z,7.38
2023-03-10T02:28:21.030Z,7.65
2023-03-10T02:30:29.028Z,7.49
2023-03-10T02:32:35.421Z,7.58
2023-03-10T02:34:38.635Z,7.54
2023-03-10T02:36:41.054Z,7.72
2023-03-10T02:38:43.515Z,7.73
2023-03-10T02:40:51.691Z,7.76
2023-03-10T02:43:07.413Z,7.81
2023-03-10T02:45:10.001Z,7.34
2023-03-10T02:47:12.820Z,7.64
2023-03-10T02:49:17.840Z,7.59
2023-03-10T02:51:24.197Z,7.81
2023-03-10T02:53:30.278Z,7.94
2023-03-10T02:55:32.592Z,7.88
2023-03-10T02:57:36.274Z,8.02
2023-03-10T02:59:38.701Z,8.36
2023-03-10T03:01:41.111Z,7.97
2023-03-10T03:03:43.499Z,8.14
2023-03-10T03:05:47.823Z,8.09
2023-03-10T03:07:50.297Z,8.32
2023-03-10T03:09:53.701Z,8.27
2023-03-10T03:11:56.225Z,8.29
2023-03-10T03:13:59.444Z,8.35
2023-03-10T03:16:02.500Z,8.38
2023-03-10T03:18:05.867Z,8.26
2023-03-10T03:20:14.606Z,8.29
2023-03-10T03:22:19.500Z,8.08
2023-03-10T03:24:22.168Z,8.63
2023-03-10T03:26:27.359Z,8.51
2023-03-10T03:28:45.884Z,8.54
2023-03-10T03:30:49.278Z,8.31
2023-03-10T03:32:53.675Z,8.29
2023-03-10T03:34:56.963Z,8.52
2023-03-10T03:36:59.644Z,8.23
2023-03-10T03:39:07.817Z,7.91
2023-03-10T03:41:11.952Z,8.25
2023-03-10T03:43:15.056Z,8.24
2023-03-10T03:45:20.828Z,8.14
2023-03-10T03:47:23.390Z,8.11
2023-03-10T03:49:25.807Z,7.94
2023-03-10T03:51:28.546Z,8.07
2023-03-10T03:53:34.754Z,8.14
2023-03-10T03:55:38.348Z,8.08
2023-03-10T03:57:42.238Z,7.77
2023-03-10T03:59:44.705Z,8.02
2023-03-10T04:01:47.685Z,8.08
2023-03-10T04:03:50.833Z,8.12
2023-03-10T04:05:53.942Z,8.01
2023-03-10T04:07:57.366Z,8.40
2023-03-10T04:10:01.115Z,8.32
2023-03-10T04:12:03.552Z,8.20
2023-03-10T04:14:07.084Z,8.05
2023-03-10T04:16:10.215Z,8.01
2023-03-10T04:18:14.969Z,8.27
2023-03-10T04:20:18.774Z,7.97
2023-03-10T04:22:25.120Z,7.92
2023-03-10T04:24:28.162Z,7.69
2023-03-10T04:26:30.829Z,8.10
2023-03-10T04:28:33.358Z,7.84
2023-03-10T04:30:35.634Z,7.81
2023-03-10T04:32:38.892Z,7.69
2023-03-10T04:34:41.239Z,7.86
2023-03-10T04:36:43.548Z,7.81
2023-03-10T04:38:45.992Z,7.77
2023-03-10T04:40:55.533Z,7.59
2023-03-10T04:43:00.153Z,7.52
2023-03-10T04:45:03.060Z,7.22
2023-03-10T04:47:05.923Z,7.23
2023-03-10T04:49:08.513Z,7.29
2023-03-10T04:51:12.272Z,6.88
2023-03-10T04:53:21.361Z,7.30
2023-03-10T04:55:23.908Z,6.93
2023-03-10T04:57:26.219Z,6.95
2023-03-10T04:59:29.511Z,7.13
2023-03-10T05:01:33.547Z,6.98
2023-03-10T05:03:39.726Z,7.34
2023-03-10T05:05:44.287Z,7.06
2023-03-10T05:07:48.790Z,7.18
2023-03-10T05:09:51.400Z,7.08
2023-03-10T05:11:54.030Z,7.16
2023-03-10T05:13:56.504Z,7.20
2023-03-10T05:15:58.993Z,7.02
2023-03-10T05:18:01.381Z,7.22
2023-03-10T05:20:05.320Z,7.24
2023-03-10T05:22:11.414Z,7.47
2023-03-10T05:24:14.044Z,7.51
2023-03-10T05:26:17.418Z,7.29
2023-03-10T05:28:20.448Z,7.49
2023-03-10T05:30:23.082Z,7.55
2023-03-10T05:32:29.854Z,7.50
2023-03-10T05:34:33.305Z,7.58
2023-03-10T05:36:38.189Z,7.46
2023-03-10T05:38:42.628Z,7.38
2023-03-10T05:40:48.750Z,7.43
2023-03-10T05:42:51.706Z,7.41
2023-03-10T05:44:56.453Z,7.31
2023-03-10T05:46:59.288Z,7.72
2023-03-10T05:49:01.599Z,7.53
2023-03-10T05:51:10.106Z,7.84
2023-03-10T05:53:13.652Z,7.75
2023-03-10T05:55:20.154Z,7.82
2023-03-10T05:57:23.202Z,7.84
2023-03-10T05:59:27.248Z,7.33
2023-03-10T06:01:31.125Z,7.75
2023-03-10T06:03:34.188Z,7.66
2023-03-10T06:05:36.677Z,7.74
2023-03-10T06:07:39.492Z,7.93
2023-03-10T06:09:41.804Z,7.68
2023-03-10T06:11:44.230Z,7.77
2023-03-10T06:13:46.806Z,7.97
2023-03-10T06:15:51.186Z,7.90
2023-03-10T06:17:53.806Z,7.84
2023-03-10T06:19:56.398Z,7.73
2023-03-10T06:21:58.896Z,8.08
2023-03-10T06:24:01.496Z,7.90
2023-03-10T06:26:10.222Z,8.08
2023-03-10T06:28:12.731Z,8.04
2023-03-10T06:30:16.153Z,8.39
2023-03-10T06:32:18.605Z,8.38
2023-03-10T06:34:21.409Z,8.20
2023-03-10T06:36:26.408Z,8.01
2023-03-10T06:38:28.882Z,8.42
2023-03-10T06:40:31.209Z,8.50
2023-03-10T06:42:33.692Z,8.69
2023-03-10T06:44:36.629Z,8.92
2023-03-10T06:46:39.236Z,9.24
2023-03-10T06:48:43.172Z,9.42
2023-03-10T06:50:50.674Z,9.59
2023-03-10T06:52:53.517Z,9.82
2023-03-10T06:54:55.872Z,9.57
2023-03-10T06:56:58.463Z,9.85
2023-03-10T06:59:01.617Z,9.87
2023-03-10T07:01:06.392Z,10.26
2023-03-10T07:03:11.754Z,10.01
2023-03-10T07:05:14.659Z,10.38
2023-03-10T07:07:17.044Z,10.11
2023-03-10T07:09:19.482Z,10.38
2023-03-10T07:11:22.994Z,10.25
2023-03-10T07:13:25.539Z,10.29
2023-03-10T07:15:28.440Z,10.37
2023-03-10T07:17:30.915Z,10.38
2023-03-10T07:19:33.512Z,10.45
2023-03-10T07:21:35.711Z,10.39
2023-03-10T07:23:39.762Z,10.52
2023-03-10T07:25:42.350Z,10.46
2023-03-10T07:27:44.750Z,10.49
2023-03-10T07:29:47.314Z,10.20
2023-03-10T07:31:49.898Z,10.62
2023-03-10T07:33:52.618Z,10.59
2023-03-10T07:35:55.259Z,10.65
2023-03-10T07:37:57.690Z,10.75
2023-03-10T07:40:00.118Z,10.78
2023-03-10T07:42:02.476Z,10.49
2023-03-10T07:44:07.872Z,10.78
2023-03-10T07:46:13.603Z,10.67
2023-03-10T07:48:15.866Z,10.69
2023-03-10T07:50:19.458Z,10.70
2023-03-10T07:52:22.089Z,10.96
2023-03-10T07:54:24.735Z,11.00
2023-03-10T07:56:27.536Z,10.97
2023-03-10T07:58:30.019Z,10.63
2023-03-10T08:00:32.329Z,10.87
2023-03-10T08:02:35.015Z,10.96
2023-03-10T08:04:38.386Z,10.85
2023-03-10T08:06:41.515Z,10.79
2023-03-10T08:08:43.899Z,10.55
2023-03-10T08:10:46.239Z,10.59
2023-03-10T08:12:48.625Z,10.87
2023-03-10T08:14:51.619Z,10.87
2023-03-10T08:16:56.926Z,10.95
2023-03-10T08:18:59.442Z,10.98
2023-03-10T08:21:05.854Z,11.18
2023-03-10T08:23:08.567Z,11.22
2023-03-10T08:25:13.117Z,11.32
2023-03-10T08:27:15.359Z,11.48
2023-03-10T08:29:18.135Z,11.64
2023-03-10T08:31:21.571Z,11.57
2023-03-10T08:33:23.987Z,11.49
2023-03-10T08:35:26.745Z,11.47
2023-03-10T08:37:29.424Z,11.82
2023-03-10T08:39:32.526Z,11.80
2023-03-10T08:41:37.775Z,11.86
2023-03-10T08:43:40.965Z,12.07
2023-03-10T08:45:43.525Z,12.06
2023-03-10T08:47:46.297Z,12.11
2023-03-10T08:49:49.050Z,12.19
2023-03-10T08:51:51.589Z,12.13
2023-03-10T08:53:54.239Z,12.56
2023-03-10T08:55:56.817Z,12.66
2023-03-10T08:57:59.407Z,12.77
2023-03-10T09:00:02.565Z,12.82
2023-03-10T09:02:05.497Z,12.70
2023-03-10T09:04:10.854Z,12.88
2023-03-10T09:06:14.724Z,12.77
2023-03-10T09:08:17.358Z,12.98
2023-03-10T09:10:19.910Z,12.97
2023-03-10T09:12:23.040Z,12.99
2023-03-10T09:14:26.070Z,13.05
2023-03-10T09:16:29.511Z,13.13
2023-03-10T09:18:32.046Z,13.14
2023-03-10T09:20:36.261Z,13.10
2023-03-10T09:22:38.946Z,13.17
2023-03-10T09:24:41.623Z,13.09
2023-03-10T09:26:44.791Z,13.06
2023-03-10T09:28:50.053Z,13.34
2023-03-10T09:30:54.366Z,13.30
2023-03-10T09:32:57.402Z,13.32
2023-03-10T09:34:59.845Z,13.24
2023-03-10T09:37:02.681Z,13.62
2023-03-10T09:39:08.024Z,13.72
2023-03-10T09:41:33.353Z,13.64
2023-03-10T09:43:40.394Z,13.82
2023-03-10T09:45:55.659Z,13.81
2023-03-10T09:48:32.940Z,14.15
2023-03-10T09:50:53.569Z,14.20
2023-03-10T09:53:04.402Z,14.28
2023-03-10T09:55:21.311Z,14.15
2023-03-10T09:57:24.211Z,14.22
2023-03-10T09:59:39.110Z,14.43
2023-03-10T10:01:45.152Z,14.42
2023-03-10T10:03:53.357Z,14.76
2023-03-10T10:05:57.999Z,14.68
2023-03-10T10:08:06.613Z,14.92
2023-03-10T10:10:24.926Z,14.76
2023-03-10T10:12:27.844Z,14.93
2023-03-10T10:14:31.590Z,14.74
2023-03-10T10:17:06.636Z,14.98
2023-03-10T10:19:23.065Z,14.98
2023-03-10T10:21:42.504Z,14.86
2023-03-10T10:23:50.680Z,14.89
2023-03-10T10:25:53.746Z,14.82
2023-03-10T10:27:56.852Z,15.04
2023-03-10T10:29:59.440Z,14.79
2023-03-10T10:32:13.865Z,14.89
2023-03-10T10:34:22.771Z,15.07
2023-03-10T10:36:28.374Z,15.13
2023-03-10T10:38:33.166Z,15.10
2023-03-10T10:40:48.075Z,15.28
2023-03-10T10:42:56.064Z,15.31
2023-03-10T10:45:02.764Z,15.23
2023-03-10T10:47:05.336Z,15.35
2023-03-10T10:49:22.728Z,15.56
2023-03-10T10:51:29.306Z,15.53
2023-03-10T10:53:36.374Z,15.53
2023-03-10T10:55:39.171Z,15.61
2023-03-10T10:57:46.361Z,15.39
2023-03-10T10:59:49.089Z,15.49
2023-03-10T11:01:56.110Z,15.71
2023-03-10T11:04:07.389Z,15.50
2023-03-10T11:06:29.471Z,15.37
2023-03-10T11:08:39.163Z,15.41
2023-03-10T11:10:42.895Z,15.34
2023-03-10T11:13:07.393Z,15.35
2023-03-10T11:15:09.788Z,15.48
2023-03-10T11:17:25.301Z,15.40
2023-03-10T11:19:53.694Z,15.38
2023-03-10T11:22:07.723Z,15.44
2023-03-10T11:24:37.477Z,15.15
2023-03-10T11:26:59.577Z,15.67
2023-03-10T11:29:25.692Z,15.67
2023-03-10T11:32:02.311Z,15.38
2023-03-10T11:34:18.082Z,15.43
2023-03-10T11:36:55.063Z,15.68
2023-03-10T11:39:12.602Z,15.51
2023-03-10T11:41:20.881Z,15.71
2023-03-10T11:43:29.938Z,15.93
2023-03-10T11:45:49.071Z,15.93
2023-03-10T11:48:03.347Z,15.62
2023-03-10T11:50:15.700Z,15.83
2023-03-10T11:52:21.302Z,15.72
2023-03-10T11:54:31.495Z,15.52
2023-03-10T11:56:33.879Z,15.69
2023-03-10T11:59:03.540Z,15.94
2023-03-10T12:01:09.073Z,15.64
2023-03-10T12:03:16.173Z,15.64
2023-03-10T12:05:24.436Z,15.74
2023-03-10T12:07:29.848Z,15.89
2023-03-10T12:09:37.246Z,15.72
2023-03-10T12:11:40.394Z,15.55
2023-03-10T12:13:50.094Z,15.82
2023-03-10T12:15:57.205Z,15.90
2023-03-10T12:18:00.431Z,15.87
2023-03-10T12:20:14.276Z,16.01
2023-03-10T12:22:21.318Z,16.16
2023-03-10T12:24:44.247Z,16.23
2023-03-10T12:26:47.497Z,16.29
2023-03-10T12:29:30.514Z,16.39
2023-03-10T12:31:35.643Z,16.52
2023-03-10T12:33:45.268Z,16.44
2023-03-10T12:35:51.030Z,16.52
2023-03-10T12:38:31.182Z,16.89
2023-03-10T12:40:53.019Z,17.27
2023-03-10T12:42:55.470Z,16.94
2023-03-10T12:45:43.626Z,17.23
2023-03-10T12:47:55.542Z,16.96
2023-03-10T12:50:03.405Z,17.09
2023-03-10T12:52:09.789Z,17.03
2023-03-10T12:54:31.629Z,16.87
2023-03-10T12:56:40.528Z,16.94
2023-03-10T12:59:05.296Z,16.82
2023-03-10T13:01:12.503Z,16.95
2023-03-10T13:03:45.484Z,16.95
2023-03-10T13:06:21.317Z,17.14
2023-03-10T13:08:48.681Z,17.32
2023-03-10T13:10:56.748Z,17.62
2023-03-10T13:13:06.085Z,17.79
2023-03-10T13:15:28.531Z,17.97
2023-03-10T13:17:33.234Z,17.90
2023-03-10T13:19:37.607Z,17.67
2023-03-10T13:21:41.171Z,17.81
2023-03-10T13:23:44.012Z,17.59
2023-03-10T13:25:58.685Z,17.59
2023-03-10T13:28:10.953Z,17.44
2023-03-10T13:30:13.896Z,17.63
2023-03-10T13:32:20.341Z,17.33
2023-03-10T13:34:28.401Z,17.36
2023-03-10T13:36:33.960Z,17.58
2023-03-10T13:38:42.388Z,17.37
2023-03-10T13:41:09.556Z,17.25
2023-03-10T13:43:42.332Z,17.46
2023-03-10T13:45:45.138Z,17.24
2023-03-10T13:47:47.800Z,17.32
2023-03-10T13:50:03.103Z,17.44
2023-03-10T13:52:08.805Z,17.01
2023-03-10T13:54:24.166Z,16.89
2023-03-10T13:56:34.805Z,16.98
2023-03-10T13:58:38.686Z,16.75
2023-03-10T14:00:42.011Z,17.02
2023-03-10T14:02:47.364Z,16.97
2023-03-10T14:04:54.137Z,16.85
2023-03-10T14:07:07.483Z,16.92
2023-03-10T14:09:15.125Z,16.85
2023-03-10T14:11:41.513Z,16.88
2023-03-10T14:13:45.776Z,16.64
2023-03-10T14:15:57.938Z,16.90
2023-03-10T14:18:09.436Z,16.91
2023-03-10T14:20:24.858Z,16.63
2023-03-10T14:22:39.336Z,16.90
2023-03-10T14:24:41.826Z,16.91
2023-03-10T14:26:44.883Z,16.77
2023-03-10T14:28:47.416Z,16.46
2023-03-10T14:30:49.719Z,16.63
2023-03-10T14:32:53.742Z,16.52
2023-03-10T14:34:56.605Z,16.64
2023-03-10T14:36:59.401Z,16.83
2023-03-10T14:39:02.149Z,16.67
2023-03-10T14:41:05.550Z,16.71
2023-03-10T14:43:12.723Z,16.53
2023-03-10T14:45:25.561Z,16.56
2023-03-10T14:47:28.231Z,16.65
2023-03-10T14:49:31.191Z,16.57
2023-03-10T14:51:36.293Z,16.37
2023-03-10T14:53:39.024Z,16.21
2023-03-10T14:55:43.873Z,16.39
2023-03-10T14:57:48.568Z,16.50
2023-03-10T14:59:51.076Z,16.43
2023-03-10T15:01:54.568Z,16.38
2023-03-10T15:03:57.225Z,16.15
2023-03-10T15:05:59.576Z,16.16
2023-03-10T15:08:04.213Z,16.09
2023-03-10T15:10:11.436Z,16.01
2023-03-10T15:12:18.339Z,15.87
2023-03-10T15:14:21.504Z,16.09
2023-03-10T15:16:24.258Z,15.66
2023-03-10T15:18:27.579Z,15.82
2023-03-10T15:20:30.547Z,15.88
2023-03-10T15:22:33.048Z,15.89
2023-03-10T15:24:35.832Z,15.69
2023-03-10T15:26:38.470Z,15.77
2023-03-10T15:28:40.971Z,16.00
2023-03-10T15:30:44.134Z,15.76
2023-03-10T15:32:47.367Z,15.63
2023-03-10T15:34:49.989Z,15.47
2023-03-10T15:36:52.678Z,15.50
2023-03-10T15:38:55.529Z,15.34
2023-03-10T15:40:58.521Z,15.52
2023-03-10T15:43:01.288Z,15.40
2023-03-10T15:45:05.715Z,15.50
2023-03-10T15:47:09.369Z,15.14
2023-03-10T15:49:11.923Z,15.36
2023-03-10T15:51:17.824Z,15.32
2023-03-10T15:53:20.555Z,15.18
2023-03-10T15:55:24.586Z,15.05
2023-03-10T15:57:27.210Z,15.11
2023-03-10T15:59:29.645Z,14.93
2023-03-10T16:01:32.195Z,14.63
2023-03-10T16:03:37.168Z,14.76
2023-03-10T16:05:48.087Z,14.79
2023-03-10T16:07:51.279Z,14.61
2023-03-10T16:09:53.953Z,14.29
2023-03-10T16:11:57.134Z,14.71
2023-03-10T16:13:59.752Z,14.43
2023-03-10T16:16:13.464Z,14.35
2023-03-10T16:18:16.540Z,14.61
2023-03-10T16:20:19.903Z,14.39
2023-03-10T16:22:23.362Z,14.51
2023-03-10T16:24:26.223Z,14.40
2023-03-10T16:26:29.549Z,14.21
2023-03-10T16:28:31.989Z,14.18
2023-03-10T16:30:34.407Z,14.09
2023-03-10T16:32:37.212Z,14.09
2023-03-10T16:34:39.445Z,13.86
2023-03-10T16:36:42.298Z,14.09
2023-03-10T16:38:44.940Z,14.02
2023-03-10T16:40:51.001Z,14.17
2023-03-10T16:42:53.710Z,13.87
2023-03-10T16:44:57.269Z,13.90
2023-03-10T16:46:59.844Z,13.74
2023-03-10T16:49:03.018Z,13.75
2023-03-10T16:51:24.115Z,13.83
2023-03-10T16:53:26.894Z,13.43
2023-03-10T16:55:29.440Z,13.35
2023-03-10T16:57:31.756Z,13.47
2023-03-10T16:59:34.474Z,13.38
2023-03-10T17:01:37.037Z,13.38
2023-03-10T17:03:42.802Z,13.24
2023-03-10T17:05:45.565Z,13.06
2023-03-10T17:07:55.736Z,13.04
2023-03-10T17:09:59.509Z,12.85
2023-03-10T17:12:02.978Z,13.09
2023-03-10T17:14:09.130Z,13.04
2023-03-10T17:16:13.480Z,12.93
2023-03-10T17:18:17.608Z,12.85
2023-03-10T17:20:20.368Z,12.86
2023-03-10T17:22:24.117Z,12.82
2023-03-10T17:24:27.849Z,12.83
2023-03-10T17:26:30.683Z,12.83
2023-03-10T17:28:33.639Z,12.74
2023-03-10T17:30:39.412Z,12.71
2023-03-10T17:32:42.181Z,12.85
2023-03-10T17:34:44.830Z,12.94
2023-03-10T17:36:50.636Z,12.78
2023-03-10T17:38:55.401Z,12.58
2023-03-10T17:40:58.352Z,12.52
2023-03-10T17:43:17.268Z,12.69
2023-03-10T17:45:23.912Z,12.41
2023-03-10T17:47:26.801Z,12.38
2023-03-10T17:49:29.727Z,12.19
2023-03-10T17:51:32.317Z,12.36
2023-03-10T17:53:35.429Z,12.31
2023-03-10T17:55:37.934Z,12.04
2023-03-10T17:57:40.915Z,11.81
2023-03-10T17:59:43.649Z,11.99
2023-03-10T18:01:46.536Z,12.16
2023-03-10T18:03:49.569Z,11.85
2023-03-10T18:05:52.079Z,11.85
2023-03-10T18:07:56.035Z,11.68
2023-03-10T18:09:58.707Z,11.72
2023-03-10T18:12:01.455Z,11.72
2023-03-10T18:14:05.448Z,11.84
2023-03-10T18:16:14.765Z,11.92
2023-03-10T18:18:17.242Z,11.74
2023-03-10T18:20:19.875Z,11.65
2023-03-10T18:22:23.349Z,11.90
2023-03-10T18:24:26.311Z,11.73
2023-03-10T18:26:34.068Z,11.83
2023-03-10T18:28:37.325Z,11.72
2023-03-10T18:30:46.361Z,11.67
2023-03-10T18:32:49.315Z,11.86
2023-03-10T18:34:51.726Z,11.50
2023-03-10T18:36:54.280Z,11.66
2023-03-10T18:38:57.101Z,11.56
2023-03-10T18:41:01.112Z,11.59
2023-03-10T18:43:03.392Z,11.58
2023-03-10T18:45:07.846Z,11.55
2023-03-10T18:47:10.315Z,11.62
2023-03-10T18:49:12.721Z,11.82
2023-03-10T18:51:15.157Z,11.53
2023-03-10T18:53:17.447Z,11.51
2023-03-10T18:55:19.994Z,11.79
2023-03-10T18:57:22.416Z,11.58
2023-03-10T18:59:25.354Z,11.76
2023-03-10T19:01:28.324Z,11.27
2023-03-10T19:03:31.469Z,11.55
2023-03-10T19:05:34.237Z,11.69
2023-03-10T19:07:38.066Z,11.49
2023-03-10T19:09:42.356Z,11.47
2023-03-10T19:11:46.166Z,11.47
2023-03-10T19:13:48.684Z,11.76
2023-03-10T19:15:51.193Z,11.74
2023-03-10T19:17:53.894Z,11.23
2023-03-10T19:19:56.366Z,11.48
2023-03-10T19:21:58.744Z,11.44
2023-03-10T19:24:01.609Z,11.30
2023-03-10T19:26:04.224Z,11.48
2023-03-10T19:28:07.898Z,11.49
2023-03-10T19:30:14.385Z,11.40
2023-03-10T19:32:17.496Z,11.32
2023-03-10T19:34:21.030Z,11.51
2023-03-10T19:36:26.693Z,11.46
2023-03-10T19:38:29.564Z,11.17
2023-03-10T19:40:32.402Z,11.37
2023-03-10T19:42:37.459Z,11.36
2023-03-10T19:44:39.871Z,11.44
2023-03-10T19:46:42.199Z,11.55
2023-03-10T19:48:45.203Z,11.31
2023-03-10T19:50:54.947Z,11.72
2023-03-10T19:52:58.618Z,11.53
2023-03-10T19:55:01.546Z,11.64
2023-03-10T19:57:05.107Z,11.36
2023-03-10T19:59:07.563Z,11.69
2023-03-10T20:01:18.546Z,11.77
2023-03-10T20:03:21.268Z,11.81
2023-03-10T20:05:25.716Z,11.67
2023-03-10T20:07:28.287Z,11.59
2023-03-10T20:09:31.296Z,11.69
2023-03-10T20:11:33.691Z,11.62
2023-03-10T20:13:36.353Z,11.47
2023-03-10T20:15:39.323Z,11.57
2023-03-10T20:17:41.905Z,11.61
2023-03-10T20:19:44.362Z,11.51
2023-03-10T20:21:47.135Z,11.56
2023-03-10T20:23:50.016Z,11.32
2023-03-10T20:26:10.204Z,11.34
2023-03-10T20:28:13.637Z,11.04
2023-03-10T20:30:19.691Z,10.85
2023-03-10T20:32:21.998Z,10.82
2023-03-10T20:34:26.204Z,10.79
2023-03-10T20:36:29.152Z,10.71
2023-03-10T20:38:32.005Z,10.67
2023-03-10T20:40:34.414Z,10.52
2023-03-10T20:42:37.023Z,10.42
2023-03-10T20:44:40.366Z,10.27
2023-03-10T20:46:44.616Z,10.37
2023-03-10T20:48:50.973Z,10.20
2023-03-10T20:50:57.653Z,10.34
2023-03-10T20:53:01.038Z,10.40
2023-03-10T20:55:05.141Z,10.14
2023-03-10T20:57:08.842Z,9.67
2023-03-10T20:59:11.490Z,9.78
2023-03-10T21:01:19.921Z,9.79
2023-03-10T21:03:22.436Z,9.68
2023-03-10T21:05:27.516Z,9.85
2023-03-10T21:07:30.243Z,9.41
2023-03-10T21:09:32.764Z,9.49
2023-03-10T21:11:35.979Z,9.69
2023-03-10T21:13:38.740Z,9.28
2023-03-10T21:15:41.455Z,9.31
2023-03-10T21:17:44.390Z,9.22
2023-03-10T21:19:47.007Z,9.36
2023-03-10T21:21:50.052Z,9.28
2023-03-10T21:23:52.619Z,9.31
2023-03-10T21:25:55.024Z,9.27
2023-03-10T21:28:00.085Z,9.03
2023-03-10T21:30:09.679Z,9.05
2023-03-10T21:32:12.427Z,8.59
2023-03-10T21:34:14.897Z,9.14
2023-03-10T21:36:22.176Z,8.80
2023-03-10T21:38:24.709Z,8.82
2023-03-10T21:40:27.648Z,8.53
2023-03-10T21:42:30.073Z,8.65
2023-03-10T21:44:32.862Z,8.46
2023-03-10T21:46:35.304Z,8.32
2023-03-10T21:48:38.046Z,8.28
2023-03-10T21:50:40.813Z,8.43
2023-03-10T21:52:43.650Z,8.43
2023-03-10T21:54:46.033Z,8.27
2023-03-10T21:56:48.826Z,8.14
2023-03-10T21:58:51.126Z,8.52
2023-03-10T22:00:56.082Z,8.53
2023-03-10T22:02:59.562Z,8.60
2023-03-10T22:05:01.996Z,8.58
2023-03-10T22:07:04.679Z,8.61
2023-03-10T22:09:07.555Z,8.42
2023-03-10T22:11:10.765Z,8.74
2023-03-10T22:13:13.309Z,8.71
2023-03-10T22:15:20.511Z,8.49
2023-03-10T22:17:24.954Z,8.66
2023-03-10T22:19:27.726Z,8.71
2023-03-10T22:21:31.113Z,8.77
2023-03-10T22:23:33.693Z,8.57
2023-03-10T22:25:36.612Z,9.09
2023-03-10T22:27:39.226Z,8.80
2023-03-10T22:29:41.655Z,8.71
2023-03-10T22:31:44.088Z,8.90
2023-03-10T22:33:46.536Z,8.96
2023-03-10T22:35:52.481Z,8.89
2023-03-10T22:37:55.128Z,8.94
2023-03-10T22:39:57.529Z,8.90
2023-03-10T22:41:59.860Z,8.89
2023-03-10T22:44:02.272Z,8.97
2023-03-10T22:46:16.983Z,9.07
2023-03-10T22:48:19.304Z,9.09
2023-03-10T22:50:25.780Z,9.11
2023-03-10T22:52:27.914Z,9.18
2023-03-10T22:54:30.147Z,9.20
2023-03-10T22:56:32.585Z,9.23
2023-03-10T22:58:34.934Z,9.20
2023-03-10T23:00:38.686Z,9.35
2023-03-10T23:02:41.999Z,9.15
2023-03-10T23:04:44.895Z,8.95
2023-03-10T23:06:47.215Z,9.38
2023-03-10T23:08:49.643Z,9.40
2023-03-10T23:10:52.898Z,9.41
2023-03-10T23:12:56.409Z,9.36
2023-03-10T23:14:59.409Z,9.31
2023-03-10T23:17:01.942Z,9.28
2023-03-10T23:19:08.388Z,9.25
2023-03-10T23:21:10.946Z,9.22
2023-03-10T23:23:15.073Z,9.20
2023-03-10T23:25:24.593Z,9.39
2023-03-10T23:27:27.109Z,9.20
2023-03-10T23:29:29.483Z,9.40
2023-03-10T23:31:31.913Z,9.07
2023-03-10T23:33:34.081Z,9.25
2023-03-10T23:35:36.695Z,9.15
2023-03-10T23:37:38.993Z,9.20
2023-03-10T23:39:41.929Z,9.29
2023-03-10T23:41:44.172Z,9.06
2023-03-10T23:43:46.770Z,9.25
2023-03-10T23:45:49.926Z,9.21
2023-03-10T23:47:52.791Z,9.24
2023-03-10T23:49:56.380Z,9.52
2023-03-10T23:51:59.129Z,9.29
2023-03-10T23:54:01.917Z,9.29
2023-03-10T23:56:04.442Z,9.18
2023-03-10T23:58:08.382Z,9.34
